createdAt,value
2019-03-23T00:00:43.666Z,22.70
2019-03-23T00:03:17.296Z,22.60
2019-03-23T00:05:48.841Z,22.30
2019-03-23T00:08:19.770Z,22.40
2019-03-23T00:10:50.740Z,22.80
2019-03-23T00:13:21.749Z,23.00
2019-03-23T00:15:53.148Z,22.80
2019-03-23T00:18:24.381Z,23.10
2019-03-23T00:20:55.983Z,23.20
2019-03-23T00:23:29.919Z,23.20
2019-03-23T00:26:00.906Z,22.70
2019-03-23T00:28:32.289Z,23.30
2019-03-23T00:31:03.287Z,23.40
2019-03-23T00:33:35.679Z,23.50
2019-03-23T00:36:06.561Z,23.90
2019-03-23T00:38:38.395Z,23.90
2019-03-23T00:41:09.947Z,24.00
2019-03-23T00:43:42.420Z,23.90
2019-03-23T00:46:15.049Z,24.20
2019-03-23T00:48:46.044Z,24.10
2019-03-23T00:51:18.105Z,24.30
2019-03-23T00:53:50.890Z,24.40
2019-03-23T00:56:22.548Z,24.50
2019-03-23T00:58:53.849Z,24.50
2019-03-23T01:01:27.730Z,24.10
2019-03-23T01:04:02.474Z,24.20
2019-03-23T01:06:34.851Z,24.70
2019-03-23T01:09:08.034Z,24.70
2019-03-23T01:11:41.561Z,24.70
2019-03-23T01:14:12.864Z,24.50
2019-03-23T01:16:45.338Z,24.50
2019-03-23T01:19:18.077Z,24.60
2019-03-23T01:21:49.142Z,24.80
2019-03-23T01:24:20.103Z,24.40
2019-03-23T01:26:50.994Z,24.50
2019-03-23T01:29:22.280Z,24.60
2019-03-23T01:31:55.159Z,24.40
2019-03-23T01:34:27.770Z,25.30
2019-03-23T01:37:03.044Z,24.90
2019-03-23T01:39:33.695Z,24.90
2019-03-23T01:42:04.630Z,25.30
2019-03-23T01:44:37.441Z,25.60
2019-03-23T01:47:09.481Z,25.50
2019-03-23T01:49:40.526Z,24.90
2019-03-23T01:52:11.501Z,25.50
2019-03-23T01:54:43.446Z,25.20
2019-03-23T01:57:15.802Z,25.10
2019-03-23T01:59:47.067Z,25.10
2019-03-23T02:02:19.410Z,24.90
2019-03-23T02:04:50.461Z,25.20
2019-03-23T02:07:22.141Z,25.30
2019-03-23T02:09:53.022Z,24.80
2019-03-23T02:12:25.351Z,25.00
2019-03-23T02:14:56.328Z,25.20
2019-03-23T02:17:28.469Z,25.30
2019-03-23T02:20:01.282Z,25.10
2019-03-23T02:22:32.495Z,25.40
2019-03-23T02:25:04.754Z,24.90
2019-03-23T02:27:35.587Z,24.90
2019-03-23T02:30:07.395Z,25.10
2019-03-23T02:32:40.200Z,25.20
2019-03-23T02:35:13.448Z,25.20
2019-03-23T02:37:46.203Z,25.30
2019-03-23T02:40:18.787Z,25.30
2019-03-23T02:42:49.741Z,25.30
2019-03-23T02:45:21.077Z,24.80
2019-03-23T02:47:52.451Z,25.10
2019-03-23T02:50:24.127Z,25.20
2019-03-23T02:52:55.083Z,25.40
2019-03-23T02:55:27.907Z,24.80
2019-03-23T02:57:59.317Z,25.50
2019-03-23T03:00:33.210Z,26.10
2019-03-23T03:03:04.484Z,25.60
2019-03-23T03:05:35.455Z,26.10
2019-03-23T03:08:08.246Z,26.20
2019-03-23T03:10:43.585Z,25.80
2019-03-23T03:13:15.037Z,26.30
2019-03-23T03:15:46.394Z,26.40
2019-03-23T03:18:17.306Z,26.10
2019-03-23T03:20:49.815Z,26.70
2019-03-23T03:23:22.116Z,26.20
2019-03-23T03:25:53.501Z,26.00
2019-03-23T03:28:24.896Z,25.60
2019-03-23T03:30:55.923Z,25.90
2019-03-23T03:33:28.751Z,26.00
2019-03-23T03:36:01.307Z,25.60
2019-03-23T03:38:34.471Z,26.30
2019-03-23T03:41:05.693Z,26.70
2019-03-23T03:43:37.849Z,25.90
2019-03-23T03:46:09.223Z,25.80
2019-03-23T03:48:40.343Z,25.80
2019-03-23T03:51:11.330Z,25.80
2019-03-23T03:53:42.323Z,25.40
2019-03-23T03:56:14.417Z,25.60
2019-03-23T03:58:45.306Z,25.50
2019-03-23T04:01:16.837Z,24.60
2019-03-23T04:03:48.235Z,25.80
2019-03-23T04:06:22.244Z,24.70
2019-03-23T04:08:53.522Z,24.80
2019-03-23T04:11:25.189Z,24.60
2019-03-23T04:13:56.533Z,25.40
2019-03-23T04:16:30.442Z,24.90
2019-03-23T04:19:02.468Z,24.70
2019-03-23T04:21:35.421Z,25.90
2019-03-23T04:24:06.744Z,26.20
2019-03-23T04:26:39.992Z,26.30
2019-03-23T04:29:13.085Z,25.90
2019-03-23T04:31:45.577Z,26.50
2019-03-23T04:34:17.797Z,26.70
2019-03-23T04:36:50.629Z,26.60
2019-03-23T04:39:22.619Z,26.30
2019-03-23T04:41:55.899Z,26.90
2019-03-23T04:44:29.004Z,26.30
2019-03-23T04:47:01.042Z,27.40
2019-03-23T04:49:33.258Z,27.40
2019-03-23T04:52:04.362Z,27.70
2019-03-23T04:54:35.850Z,27.60
2019-03-23T04:57:07.906Z,28.00
2019-03-23T04:59:39.251Z,27.80
2019-03-23T05:02:10.672Z,27.90
2019-03-23T05:04:43.980Z,28.30
2019-03-23T05:07:14.996Z,28.40
2019-03-23T05:09:49.089Z,28.00
2019-03-23T05:12:21.467Z,28.00
2019-03-23T05:14:53.933Z,27.00
2019-03-23T05:17:27.499Z,26.50
2019-03-23T05:19:58.857Z,27.00
2019-03-23T05:22:29.885Z,27.20
2019-03-23T05:25:01.069Z,27.10
2019-03-23T05:27:34.133Z,27.30
2019-03-23T05:30:06.936Z,27.30
2019-03-23T05:32:38.825Z,27.10
2019-03-23T05:35:10.162Z,27.60
2019-03-23T05:37:41.473Z,27.50
2019-03-23T05:40:14.051Z,26.90
2019-03-23T05:42:45.348Z,27.20
2019-03-23T05:45:16.413Z,27.00
2019-03-23T05:47:48.299Z,26.80
2019-03-23T05:50:22.053Z,26.80
2019-03-23T05:52:53.805Z,26.60
2019-03-23T05:55:27.104Z,26.00
2019-03-23T05:57:59.784Z,24.80
2019-03-23T06:00:31.829Z,22.00
2019-03-23T06:03:03.060Z,17.80
2019-03-23T06:05:34.838Z,14.00
2019-03-23T06:08:06.945Z,10.70
2019-03-23T06:10:39.001Z,6.90
2019-03-23T06:13:10.291Z,5.30
2019-03-23T06:15:43.129Z,2.60
2019-03-23T06:18:14.335Z,1.50
2019-03-23T06:20:46.730Z,1.00
2019-03-23T06:23:21.017Z,1.00
2019-03-23T06:25:54.452Z,1.00
2019-03-23T06:28:25.449Z,1.00
2019-03-23T06:30:56.714Z,1.00
2019-03-23T06:33:30.649Z,1.00
2019-03-23T06:36:02.746Z,1.00
2019-03-23T06:38:33.812Z,1.00
2019-03-23T06:41:07.552Z,1.00
2019-03-23T06:43:38.777Z,1.00
2019-03-23T06:46:12.273Z,1.00
2019-03-23T06:48:43.396Z,1.00
2019-03-23T06:51:14.330Z,1.00
2019-03-23T06:53:45.704Z,1.00
2019-03-23T06:56:16.953Z,1.00
2019-03-23T06:58:51.349Z,1.00
2019-03-23T07:01:22.379Z,1.00
2019-03-23T07:03:54.064Z,1.00
2019-03-23T07:06:26.213Z,1.00
2019-03-23T07:08:57.148Z,1.00
2019-03-23T07:11:29.402Z,1.00
2019-03-23T07:14:01.592Z,1.00
2019-03-23T07:16:33.767Z,1.00
2019-03-23T07:19:08.343Z,1.00
2019-03-23T07:21:39.649Z,1.00
2019-03-23T07:24:13.670Z,1.00
2019-03-23T07:26:44.676Z,1.00
2019-03-23T07:29:17.024Z,1.00
2019-03-23T07:31:48.478Z,1.00
2019-03-23T07:34:22.411Z,1.00
2019-03-23T07:36:54.511Z,1.00
2019-03-23T07:39:28.221Z,1.00
2019-03-23T07:42:00.124Z,1.00
2019-03-23T07:44:33.339Z,1.00
2019-03-23T07:47:06.970Z,1.00
2019-03-23T07:49:40.064Z,1.00
2019-03-23T07:52:11.315Z,1.00
2019-03-23T07:54:43.651Z,1.00
2019-03-23T07:57:14.567Z,1.00
2019-03-23T07:59:45.552Z,1.00
2019-03-23T08:02:16.671Z,1.00
2019-03-23T08:04:47.645Z,1.00
2019-03-23T08:07:18.588Z,1.00
2019-03-23T08:09:52.802Z,1.00
2019-03-23T08:12:24.050Z,1.00
2019-03-23T08:14:55.706Z,1.00
2019-03-23T08:17:27.330Z,1.00
2019-03-23T08:19:58.610Z,1.00
2019-03-23T08:22:30.119Z,1.00
2019-03-23T08:25:01.104Z,1.00
2019-03-23T08:27:32.345Z,1.00
2019-03-23T08:30:05.145Z,1.00
2019-03-23T08:32:37.165Z,1.00
2019-03-23T08:35:09.036Z,1.00
2019-03-23T08:37:40.722Z,1.00
2019-03-23T08:40:12.907Z,1.00
2019-03-23T08:42:46.288Z,1.00
2019-03-23T08:45:17.199Z,1.00
2019-03-23T08:47:48.156Z,1.00
2019-03-23T08:50:19.078Z,1.00
2019-03-23T08:52:51.260Z,1.00
2019-03-23T08:55:22.969Z,1.00
2019-03-23T08:57:54.278Z,1.00
2019-03-23T09:00:27.406Z,1.00
2019-03-23T09:03:00.401Z,1.00
2019-03-23T09:05:33.258Z,1.00
2019-03-23T09:08:06.678Z,1.00
2019-03-23T09:10:39.236Z,1.00
2019-03-23T09:13:10.146Z,1.00
2019-03-23T09:15:42.846Z,1.00
2019-03-23T09:18:14.359Z,1.00
2019-03-23T09:20:47.927Z,1.00
2019-03-23T09:23:20.709Z,1.00
2019-03-23T09:25:52.845Z,1.00
2019-03-23T09:28:26.342Z,1.00
2019-03-23T09:30:58.811Z,1.00
2019-03-23T09:33:30.330Z,1.00
2019-03-23T09:36:01.258Z,1.00
2019-03-23T09:38:32.249Z,1.00
2019-03-23T09:41:04.284Z,1.00
2019-03-23T09:43:35.610Z,1.00
2019-03-23T09:46:06.799Z,1.00
2019-03-23T09:48:37.959Z,1.00
2019-03-23T09:51:10.583Z,1.00
2019-03-23T09:53:42.541Z,1.00
2019-03-23T09:56:15.757Z,1.00
2019-03-23T09:58:46.836Z,1.00
2019-03-23T10:01:20.998Z,1.00
2019-03-23T10:03:52.385Z,1.00
2019-03-23T10:06:23.726Z,1.00
2019-03-23T10:08:54.737Z,1.00
2019-03-23T10:11:25.714Z,1.00
2019-03-23T10:13:57.137Z,1.00
2019-03-23T10:16:28.418Z,1.00
2019-03-23T10:19:00.389Z,1.00
2019-03-23T10:21:32.895Z,1.00
2019-03-23T10:24:05.920Z,1.00
2019-03-23T10:26:37.953Z,1.00
2019-03-23T10:29:09.582Z,1.00
2019-03-23T10:31:43.187Z,1.00
2019-03-23T10:34:14.211Z,1.00
2019-03-23T10:36:45.590Z,1.00
2019-03-23T10:39:18.391Z,1.00
2019-03-23T10:41:51.342Z,1.00
2019-03-23T10:44:24.513Z,1.00
2019-03-23T10:46:55.781Z,1.00
2019-03-23T10:49:29.498Z,1.00
2019-03-23T10:52:01.816Z,1.00
2019-03-23T10:54:34.058Z,1.00
2019-03-23T10:57:05.282Z,1.00
2019-03-23T10:59:36.714Z,1.00
2019-03-23T11:02:09.185Z,1.00
2019-03-23T11:04:44.053Z,1.00
2019-03-23T11:07:17.257Z,1.00
2019-03-23T11:09:51.801Z,1.00
2019-03-23T11:12:24.028Z,1.00
2019-03-23T11:14:55.974Z,1.00
2019-03-23T11:17:27.019Z,1.00
2019-03-23T11:19:58.617Z,1.00
2019-03-23T11:22:31.062Z,1.00
2019-03-23T11:25:02.314Z,1.00
2019-03-23T11:27:33.667Z,1.00
2019-03-23T11:30:05.068Z,1.00
2019-03-23T11:32:36.249Z,1.00
2019-03-23T11:35:08.150Z,1.00
2019-03-23T11:37:40.790Z,1.00
2019-03-23T11:40:13.351Z,1.00
2019-03-23T11:42:50.275Z,1.00
2019-03-23T11:45:19.170Z,1.00
2019-03-23T11:47:52.997Z,1.00
2019-03-23T11:50:24.946Z,1.00
2019-03-23T11:52:57.314Z,1.00
2019-03-23T11:55:28.229Z,1.00
2019-03-23T11:58:00.703Z,1.00
2019-03-23T12:00:32.159Z,1.00
2019-03-23T12:03:04.838Z,1.00
2019-03-23T12:05:36.075Z,1.00
2019-03-23T12:08:09.523Z,1.00
2019-03-23T12:10:41.238Z,1.00
2019-03-23T12:13:12.483Z,1.00
2019-03-23T12:15:45.577Z,1.00
2019-03-23T12:18:18.354Z,1.00
2019-03-23T12:20:52.341Z,1.00
2019-03-23T12:23:25.354Z,1.00
2019-03-23T12:25:56.591Z,1.00
2019-03-23T12:28:29.268Z,1.00
2019-03-23T12:31:01.675Z,1.00
2019-03-23T12:33:33.208Z,1.00
2019-03-23T12:36:04.504Z,1.00
2019-03-23T12:38:35.620Z,1.00
2019-03-23T12:41:14.164Z,1.00
2019-03-23T12:43:39.837Z,1.00
2019-03-23T12:46:11.126Z,1.00
2019-03-23T12:48:42.168Z,1.00
2019-03-23T12:51:14.540Z,1.00
2019-03-23T12:53:45.436Z,1.00
2019-03-23T12:56:16.415Z,1.00
2019-03-23T12:58:48.141Z,1.00
2019-03-23T13:01:20.158Z,1.00
2019-03-23T13:03:51.553Z,1.00
2019-03-23T13:06:22.448Z,1.00
2019-03-23T13:08:55.225Z,1.00
2019-03-23T13:11:34.747Z,1.00
2019-03-23T13:13:59.522Z,1.00
2019-03-23T13:16:33.119Z,1.00
2019-03-23T13:19:05.486Z,1.00
2019-03-23T13:21:37.137Z,1.00
2019-03-23T13:24:09.203Z,1.00
2019-03-23T13:26:40.449Z,1.00
2019-03-23T13:31:52.206Z,1.00
2019-03-23T13:34:23.547Z,1.00
2019-03-23T13:36:56.888Z,1.00
2019-03-23T13:39:29.017Z,1.00
2019-03-23T13:42:00.574Z,1.00
2019-03-23T13:44:31.666Z,1.00
2019-03-23T13:47:03.018Z,1.00
2019-03-23T13:49:36.414Z,1.00
2019-03-23T13:52:09.501Z,1.00
2019-03-23T13:54:40.845Z,1.00
2019-03-23T13:57:12.125Z,1.00
2019-03-23T13:59:45.858Z,1.00
2019-03-23T14:02:20.442Z,1.00
2019-03-23T14:04:51.880Z,1.00
2019-03-23T14:07:22.893Z,1.00
2019-03-23T14:09:54.981Z,1.00
2019-03-23T14:12:29.170Z,1.00
2019-03-23T14:15:01.833Z,1.00
2019-03-23T14:17:32.839Z,1.00
2019-03-23T14:20:04.188Z,1.00
2019-03-23T14:22:36.881Z,1.00
2019-03-23T14:25:08.045Z,1.00
2019-03-23T14:27:41.693Z,1.00
2019-03-23T14:30:13.264Z,1.00
2019-03-23T14:32:44.288Z,1.00
2019-03-23T14:35:15.206Z,1.00
2019-03-23T14:37:46.506Z,1.00
2019-03-23T14:40:17.521Z,1.00
2019-03-23T14:42:48.546Z,1.00
2019-03-23T14:45:20.816Z,1.00
2019-03-23T14:47:53.438Z,1.00
2019-03-23T14:50:25.405Z,1.00
2019-03-23T14:52:57.437Z,1.00
2019-03-23T14:55:28.702Z,1.00
2019-03-23T14:57:59.637Z,1.00
2019-03-23T15:00:34.131Z,1.00
2019-03-23T15:03:06.582Z,1.00
2019-03-23T15:05:39.323Z,1.00
2019-03-23T15:08:10.713Z,1.00
2019-03-23T15:10:43.378Z,1.00
2019-03-23T15:13:15.556Z,1.00
2019-03-23T15:15:48.391Z,1.00
2019-03-23T15:18:21.533Z,1.00
2019-03-23T15:20:52.580Z,1.00
2019-03-23T15:23:26.507Z,1.00
2019-03-23T15:25:57.461Z,1.00
2019-03-23T15:28:28.493Z,1.00
2019-03-23T15:31:00.153Z,1.00
2019-03-23T15:33:32.877Z,1.00
2019-03-23T15:36:04.133Z,1.00
2019-03-23T15:38:35.480Z,1.00
2019-03-23T15:41:06.716Z,1.00
2019-03-23T15:43:38.972Z,1.00
2019-03-23T15:46:10.066Z,1.00
2019-03-23T15:48:41.149Z,1.00
2019-03-23T15:51:12.965Z,1.00
2019-03-23T15:53:43.976Z,1.00
2019-03-23T15:56:16.945Z,1.00
2019-03-23T15:58:48.222Z,1.00
2019-03-23T16:01:20.895Z,1.00
2019-03-23T16:03:53.747Z,1.00
2019-03-23T16:06:27.888Z,1.00
2019-03-23T16:08:59.673Z,1.00
2019-03-23T16:11:30.989Z,1.00
2019-03-23T16:14:03.675Z,1.00
2019-03-23T16:16:36.259Z,1.00
2019-03-23T16:19:07.607Z,1.00
2019-03-23T16:21:38.610Z,1.00
2019-03-23T16:24:09.661Z,1.00
2019-03-23T16:26:40.615Z,1.00
2019-03-23T16:29:11.941Z,1.00
2019-03-23T16:31:45.097Z,1.00
2019-03-23T16:34:17.408Z,1.00
2019-03-23T16:36:48.448Z,1.00
2019-03-23T16:39:20.209Z,1.00
2019-03-23T16:41:54.816Z,1.00
2019-03-23T16:44:26.243Z,1.00
2019-03-23T16:46:59.752Z,1.00
2019-03-23T16:49:30.779Z,1.00
2019-03-23T16:52:01.769Z,1.00
2019-03-23T16:54:33.305Z,1.00
2019-03-23T16:57:04.271Z,1.00
2019-03-23T16:59:35.648Z,1.00
2019-03-23T17:02:06.608Z,1.00
2019-03-23T17:04:39.391Z,1.00
2019-03-23T17:07:11.541Z,1.00
2019-03-23T17:09:44.290Z,1.00
2019-03-23T17:12:15.276Z,1.00
2019-03-23T17:14:46.272Z,1.00
2019-03-23T17:17:19.127Z,1.00
2019-03-23T17:19:52.041Z,1.00
2019-03-23T17:22:23.625Z,1.00
2019-03-23T17:24:54.725Z,1.00
2019-03-23T17:27:25.713Z,1.00
2019-03-23T17:29:58.286Z,1.00
2019-03-23T17:32:31.137Z,1.00
2019-03-23T17:35:02.287Z,1.00
2019-03-23T17:37:35.939Z,1.00
2019-03-23T17:40:07.596Z,1.00
2019-03-23T17:42:41.013Z,1.00
2019-03-23T17:45:13.517Z,1.00
2019-03-23T17:47:46.845Z,1.00
2019-03-23T17:50:17.845Z,1.00
2019-03-23T17:52:49.065Z,1.00
2019-03-23T17:55:22.788Z,1.00
2019-03-23T17:57:53.845Z,1.00
2019-03-23T18:00:25.057Z,1.00
2019-03-23T18:02:57.045Z,1.00
2019-03-23T18:05:31.301Z,1.00
2019-03-23T18:08:06.799Z,1.00
2019-03-23T18:10:37.777Z,1.00
2019-03-23T18:13:16.583Z,1.00
2019-03-23T18:15:45.613Z,1.00
2019-03-23T18:18:18.391Z,1.00
2019-03-23T18:20:50.377Z,1.00
2019-03-23T18:23:23.083Z,1.00
2019-03-23T18:25:56.472Z,1.00
2019-03-23T18:28:28.785Z,1.00
2019-03-23T18:31:01.414Z,1.00
2019-03-23T18:33:33.039Z,1.00
2019-03-23T18:36:03.968Z,1.00
2019-03-23T18:38:34.991Z,1.00
2019-03-23T18:41:07.327Z,1.50
2019-03-23T18:43:39.751Z,1.00
2019-03-23T18:46:11.330Z,1.60
2019-03-23T18:48:43.556Z,2.10
2019-03-23T18:51:14.792Z,2.60
2019-03-23T18:53:46.901Z,2.60
2019-03-23T18:56:17.850Z,2.80
2019-03-23T18:58:49.249Z,3.40
2019-03-23T19:01:21.901Z,3.20
2019-03-23T19:03:52.896Z,3.40
2019-03-23T19:06:25.780Z,4.00
2019-03-23T19:08:56.974Z,4.10
2019-03-23T19:11:27.928Z,4.50
2019-03-23T19:13:59.242Z,4.40
2019-03-23T19:16:31.933Z,5.00
2019-03-23T19:19:03.884Z,5.60
2019-03-23T19:21:35.049Z,5.40
2019-03-23T19:24:09.242Z,5.10
2019-03-23T19:26:40.497Z,5.30
2019-03-23T19:29:12.540Z,5.40
2019-03-23T19:31:43.478Z,5.50
2019-03-23T19:34:14.421Z,6.10
2019-03-23T19:36:45.925Z,6.80
2019-03-23T19:39:19.011Z,6.90
2019-03-23T19:41:51.255Z,6.80
2019-03-23T19:44:22.265Z,6.90
2019-03-23T19:46:53.406Z,6.70
2019-03-23T19:49:26.189Z,7.00
2019-03-23T19:51:59.524Z,7.00
2019-03-23T19:54:30.776Z,6.70
2019-03-23T19:57:02.777Z,7.00
2019-03-23T19:59:34.043Z,7.60
2019-03-23T20:02:05.073Z,7.90
2019-03-23T20:04:36.692Z,8.20
2019-03-23T20:07:08.795Z,8.10
2019-03-23T20:09:40.664Z,8.50
2019-03-23T20:12:13.883Z,8.60
2019-03-23T20:14:44.946Z,9.00
2019-03-23T20:17:16.245Z,9.00
2019-03-23T20:19:48.554Z,8.60
2019-03-23T20:22:21.729Z,10.00
2019-03-23T20:24:54.237Z,10.10
2019-03-23T20:27:26.694Z,9.80
2019-03-23T20:29:57.713Z,10.20
2019-03-23T20:32:29.825Z,10.50
2019-03-23T20:35:03.045Z,10.40
2019-03-23T20:37:34.103Z,10.10
2019-03-23T20:40:05.984Z,10.20
2019-03-23T20:42:37.067Z,10.80
2019-03-23T20:45:09.618Z,10.90
2019-03-23T20:47:43.745Z,10.60
2019-03-23T20:50:15.078Z,10.70
2019-03-23T20:52:47.058Z,10.80
2019-03-23T20:55:31.329Z,10.80
2019-03-23T20:58:02.617Z,11.10
2019-03-23T21:00:35.194Z,11.00
2019-03-23T21:03:06.404Z,11.00
2019-03-23T21:05:40.503Z,11.40
2019-03-23T21:08:11.478Z,12.10
2019-03-23T21:10:42.642Z,12.50
2019-03-23T21:13:13.765Z,12.40
2019-03-23T21:15:46.449Z,12.60
2019-03-23T21:18:18.051Z,12.80
2019-03-23T21:20:50.916Z,13.00
2019-03-23T21:23:22.089Z,12.90
2019-03-23T21:25:52.981Z,13.10
2019-03-23T21:28:24.025Z,13.20
2019-03-23T21:30:54.960Z,13.40
2019-03-23T21:33:31.993Z,13.90
2019-03-23T21:36:00.641Z,13.00
2019-03-23T21:38:36.419Z,13.10
2019-03-23T21:41:09.466Z,14.10
2019-03-23T21:43:43.605Z,14.00
2019-03-23T21:48:48.638Z,14.60
2019-03-23T21:51:21.560Z,14.60
2019-03-23T21:53:54.412Z,14.00
2019-03-23T21:56:26.098Z,14.70
2019-03-23T21:58:58.955Z,14.90
2019-03-23T22:01:30.697Z,15.30
2019-03-23T22:04:01.920Z,14.70
2019-03-23T22:06:36.004Z,14.90
2019-03-23T22:09:08.224Z,15.50
2019-03-23T22:11:40.379Z,15.70
2019-03-23T22:14:11.560Z,15.90
2019-03-23T22:16:44.673Z,16.10
2019-03-23T22:19:17.585Z,15.70
2019-03-23T22:21:50.279Z,16.30
2019-03-23T22:24:23.499Z,16.50
2019-03-23T22:26:54.452Z,16.70
2019-03-23T22:29:26.750Z,16.50
2019-03-23T22:31:57.763Z,16.70
2019-03-23T22:34:29.087Z,16.50
2019-03-23T22:37:01.176Z,16.40
2019-03-23T22:39:32.480Z,16.60
2019-03-23T22:42:05.447Z,17.00
2019-03-23T22:44:39.277Z,17.90
2019-03-23T22:47:10.790Z,17.50
2019-03-23T22:49:43.373Z,17.80
2019-03-23T22:52:15.011Z,17.70
2019-03-23T22:54:46.071Z,17.70
2019-03-23T22:57:17.095Z,18.30
2019-03-23T22:59:49.337Z,18.20
2019-03-23T23:02:20.639Z,18.30
2019-03-23T23:04:52.551Z,19.00
2019-03-23T23:07:24.510Z,18.90
2019-03-23T23:09:57.458Z,18.80
2019-03-23T23:12:28.736Z,18.30
2019-03-23T23:15:04.754Z,18.10
2019-03-23T23:17:34.565Z,17.90
2019-03-23T23:20:08.445Z,17.90
2019-03-23T23:22:42.843Z,17.80
2019-03-23T23:25:14.114Z,17.70
2019-03-23T23:27:46.629Z,17.90
2019-03-23T23:30:18.129Z,17.70
2019-03-23T23:32:51.270Z,17.90
2019-03-23T23:35:23.984Z,17.50
2019-03-23T23:37:54.955Z,17.70
2019-03-23T23:40:29.041Z,17.50
2019-03-23T23:43:01.145Z,18.10
2019-03-23T23:45:35.175Z,17.90
2019-03-23T23:48:06.433Z,17.90
2019-03-23T23:50:39.297Z,17.60
2019-03-23T23:53:11.415Z,17.50
2019-03-23T23:55:43.487Z,18.40
2019-03-23T23:58:14.477Z,18.10
